﻿<?xml version="1.0" encoding="utf-8"?><gpx creator="Garmin Desktop App" version="1.1" xsi:schemaLocation="http://www.topografix.com/GPX/1/1 http://www.topografix.com/GPX/1/1/gpx.xsd http://www.garmin.com/xmlschemas/WaypointExtension/v1 http://www8.garmin.com/xmlschemas/WaypointExtensionv1.xsd http://www.garmin.com/xmlschemas/TrackPointExtension/v1 http://www.garmin.com/xmlschemas/TrackPointExtensionv1.xsd http://www.garmin.com/xmlschemas/GpxExtensions/v3 http://www8.garmin.com/xmlschemas/GpxExtensionsv3.xsd http://www.garmin.com/xmlschemas/ActivityExtension/v1 http://www8.garmin.com/xmlschemas/ActivityExtensionv1.xsd http://www.garmin.com/xmlschemas/AdventuresExtensions/v1 http://www8.garmin.com/xmlschemas/AdventuresExtensionv1.xsd http://www.garmin.com/xmlschemas/PressureExtension/v1 http://www.garmin.com/xmlschemas/PressureExtensionv1.xsd http://www.garmin.com/xmlschemas/TripExtensions/v1 http://www.garmin.com/xmlschemas/TripExtensionsv1.xsd http://www.garmin.com/xmlschemas/TripMetaDataExtensions/v1 http://www.garmin.com/xmlschemas/TripMetaDataExtensionsv1.xsd http://www.garmin.com/xmlschemas/ViaPointTransportationModeExtensions/v1 http://www.garmin.com/xmlschemas/ViaPointTransportationModeExtensionsv1.xsd http://www.garmin.com/xmlschemas/CreationTimeExtension/v1 http://www.garmin.com/xmlschemas/CreationTimeExtensionsv1.xsd http://www.garmin.com/xmlschemas/AccelerationExtension/v1 http://www.garmin.com/xmlschemas/AccelerationExtensionv1.xsd http://www.garmin.com/xmlschemas/PowerExtension/v1 http://www.garmin.com/xmlschemas/PowerExtensionv1.xsd http://www.garmin.com/xmlschemas/VideoExtension/v1 http://www.garmin.com/xmlschemas/VideoExtensionv1.xsd" xmlns="http://www.topografix.com/GPX/1/1" xmlns:xsi="http://www.w3.org/2001/XMLSchema-instance" xmlns:wptx1="http://www.garmin.com/xmlschemas/WaypointExtension/v1" xmlns:gpxtrx="http://www.garmin.com/xmlschemas/GpxExtensions/v3" xmlns:gpxtpx="http://www.garmin.com/xmlschemas/TrackPointExtension/v1" xmlns:gpxx="http://www.garmin.com/xmlschemas/GpxExtensions/v3" xmlns:trp="http://www.garmin.com/xmlschemas/TripExtensions/v1" xmlns:adv="http://www.garmin.com/xmlschemas/AdventuresExtensions/v1" xmlns:prs="http://www.garmin.com/xmlschemas/PressureExtension/v1" xmlns:tmd="http://www.garmin.com/xmlschemas/TripMetaDataExtensions/v1" xmlns:vptm="http://www.garmin.com/xmlschemas/ViaPointTransportationModeExtensions/v1" xmlns:ctx="http://www.garmin.com/xmlschemas/CreationTimeExtension/v1" xmlns:gpxacc="http://www.garmin.com/xmlschemas/AccelerationExtension/v1" xmlns:gpxpx="http://www.garmin.com/xmlschemas/PowerExtension/v1" xmlns:vidx1="http://www.garmin.com/xmlschemas/VideoExtension/v1">

  <metadata>
    <link href="http://www.garmin.com">
      <text>Garmin International</text>
    </link>
    <time>2021-01-24T12:21:10Z</time>
    <bounds maxlat="46.418000841513276" maxlon="8.821167116984725" minlat="46.411227341741323" minlon="8.785249656066299" />
  </metadata>

  <trk>
    <name>rif-alpe-sponda</name>
    <desc>&lt;h1&gt;OruxMaps&lt;/h1&gt;&lt;br /&gt;&lt;hr align="center" width="480" style="height: 2px; width: 517px"/&gt;&lt;h2&gt;Nome: rif.alpe sponda&lt;/h2&gt;&lt;br /&gt;&lt;p&gt;Orario inizio: 10/13/2012 08:13&lt;/p&gt;&lt;p&gt;Orario fine: 10/13/2012 15:08&lt;/p&gt;&lt;p&gt;Distanza: 11,2 km (06:54)&lt;/p&gt;&lt;p&gt;Tempo movimento: 06:11&lt;/p&gt;&lt;p&gt;Media segmento attuale: 1,6 km/h&lt;/p&gt;&lt;p&gt;Media veloc. mov.: 1,8 km/h&lt;/p&gt;&lt;p&gt;Max. Velocità: 41,9 km/h&lt;/p&gt;&lt;p&gt;Altitudine minima: 821 m&lt;/p&gt;&lt;p&gt;Altitudine massima: 2343 m&lt;/p&gt;&lt;p&gt;Velocità di salita: 634,3 m/h&lt;/p&gt;&lt;p&gt;Velocità di discesa: -231,4 m/h&lt;/p&gt;&lt;p&gt;Guadagno di elevazione: 1283 m&lt;/p&gt;&lt;p&gt;Perdita di elevazione: -1080 m&lt;/p&gt;&lt;p&gt;Tempo di salita: 02:01&lt;/p&gt;&lt;p&gt;Tempo di discesa: 04:40&lt;/p&gt;&lt;hr align="center" width="480" style="height: 2px; width: 517px"/&gt;</desc>
    <extensions>
      <gpxx:TrackExtension>
        <gpxx:DisplayColor>Yellow</gpxx:DisplayColor>
      </gpxx:TrackExtension>
    </extensions>
    <trkseg>
      <trkpt lat="46.412572972476482" lon="8.81813739426434">
        <ele>821.553</ele>
        <time>2012-10-13T06:13:31Z</time>
      </trkpt>
      <trkpt lat="46.412768606096506" lon="8.818256752565503">
        <ele>1036.7805000000001</ele>
        <time>2012-10-13T06:13:39Z</time>
      </trkpt>
      <trkpt lat="46.412930125370622" lon="8.818380553275347">
        <ele>1037.0242000000001</ele>
        <time>2012-10-13T06:13:44Z</time>
      </trkpt>
      <trkpt lat="46.413083011284471" lon="8.818561183288693">
        <ele>1021.407</ele>
        <time>2012-10-13T06:14:12Z</time>
      </trkpt>
      <trkpt lat="46.412914786487818" lon="8.818453811109066">
        <ele>1029.2227</ele>
        <time>2012-10-13T06:14:27Z</time>
      </trkpt>
      <trkpt lat="46.413108995184302" lon="8.818452805280685">
        <ele>1014.2424999999999</ele>
        <time>2012-10-13T06:14:54Z</time>
      </trkpt>
      <trkpt lat="46.413297085091472" lon="8.818461522459984">
        <ele>992.89904999999999</ele>
        <time>2012-10-13T06:15:18Z</time>
      </trkpt>
      <trkpt lat="46.413145372644067" lon="8.818616420030594">
        <ele>1016.7531</ele>
        <time>2012-10-13T06:17:04Z</time>
      </trkpt>
      <trkpt lat="46.413309909403324" lon="8.818722199648619">
        <ele>999.34424000000001</ele>
        <time>2012-10-13T06:18:48Z</time>
      </trkpt>
      <trkpt lat="46.413285434246063" lon="8.818989247083664">
        <ele>995.43933000000004</ele>
        <time>2012-10-13T06:19:08Z</time>
      </trkpt>
      <trkpt lat="46.413146546110511" lon="8.819178091362119">
        <ele>987.48175000000003</ele>
        <time>2012-10-13T06:19:24Z</time>
      </trkpt>
      <trkpt lat="46.412974633276463" lon="8.819262078031898">
        <ele>977.96154999999999</ele>
        <time>2012-10-13T06:19:37Z</time>
      </trkpt>
      <trkpt lat="46.413022242486477" lon="8.819526191800833">
        <ele>974.04849999999999</ele>
        <time>2012-10-13T06:19:52Z</time>
      </trkpt>
      <trkpt lat="46.413124669343233" lon="8.819757951423526">
        <ele>975.42679999999996</ele>
        <time>2012-10-13T06:20:04Z</time>
      </trkpt>
      <trkpt lat="46.413279986009002" lon="8.8198905531317">
        <ele>982.73914000000002</ele>
        <time>2012-10-13T06:20:23Z</time>
      </trkpt>
      <trkpt lat="46.413426082581282" lon="8.820042936131358">
        <ele>988.09100000000001</ele>
        <time>2012-10-13T06:20:39Z</time>
      </trkpt>
      <trkpt lat="46.413442930206656" lon="8.819771949201822">
        <ele>989.81809999999996</ele>
        <time>2012-10-13T06:21:01Z</time>
      </trkpt>
      <trkpt lat="46.413508392870426" lon="8.819529376924038">
        <ele>984.88660000000004</ele>
        <time>2012-10-13T06:21:18Z</time>
      </trkpt>
      <trkpt lat="46.413689609616995" lon="8.819547398015857">
        <ele>978.72924999999998</ele>
        <time>2012-10-13T06:22:08Z</time>
      </trkpt>
      <trkpt lat="46.413820618763566" lon="8.819737751036882">
        <ele>979.29663000000005</ele>
        <time>2012-10-13T06:22:20Z</time>
      </trkpt>
      <trkpt lat="46.41385062597692" lon="8.819478331133723">
        <ele>980.63684000000001</ele>
        <time>2012-10-13T06:22:41Z</time>
      </trkpt>
      <trkpt lat="46.413791785016656" lon="8.819216815754771">
        <ele>978.65186000000006</ele>
        <time>2012-10-13T06:22:57Z</time>
      </trkpt>
      <trkpt lat="46.413910137489438" lon="8.819418232887983">
        <ele>970.14954</ele>
        <time>2012-10-13T06:23:39Z</time>
      </trkpt>
      <trkpt lat="46.414035111665726" lon="8.819613782688975">
        <ele>959.31304999999998</ele>
        <time>2012-10-13T06:23:50Z</time>
      </trkpt>
      <trkpt lat="46.414197469130158" lon="8.819741690531373">
        <ele>954.57249999999999</ele>
        <time>2012-10-13T06:24:05Z</time>
      </trkpt>
      <trkpt lat="46.414259411394596" lon="8.819485958665609">
        <ele>947.66740000000004</ele>
        <time>2012-10-13T06:24:26Z</time>
      </trkpt>
      <trkpt lat="46.414414141327143" lon="8.819648902863264">
        <ele>947.76790000000005</ele>
        <time>2012-10-13T06:25:09Z</time>
      </trkpt>
      <trkpt lat="46.414578007534146" lon="8.81977622397244">
        <ele>942.0077</ele>
        <time>2012-10-13T06:25:48Z</time>
      </trkpt>
      <trkpt lat="46.41473701223731" lon="8.819653932005167">
        <ele>941.95623999999998</ele>
        <time>2012-10-13T06:26:01Z</time>
      </trkpt>
      <trkpt lat="46.414874643087387" lon="8.819866999983788">
        <ele>935.89813000000004</ele>
        <time>2012-10-13T06:26:45Z</time>
      </trkpt>
      <trkpt lat="46.415044208988547" lon="8.819986190646887">
        <ele>932.55804000000001</ele>
        <time>2012-10-13T06:26:57Z</time>
      </trkpt>
      <trkpt lat="46.41516842879355" lon="8.820184925571084">
        <ele>925.02250000000004</ele>
        <time>2012-10-13T06:27:43Z</time>
      </trkpt>
      <trkpt lat="46.415349561721087" lon="8.820143435150385">
        <ele>913.65200000000004</ele>
        <time>2012-10-13T06:28:22Z</time>
      </trkpt>
      <trkpt lat="46.415524743497372" lon="8.820254998281598">
        <ele>909.36099999999999</ele>
        <time>2012-10-13T06:28:31Z</time>
      </trkpt>
      <trkpt lat="46.415575454011559" lon="8.820505198091269">
        <ele>879.71849999999995</ele>
        <time>2012-10-13T06:30:07Z</time>
      </trkpt>
      <trkpt lat="46.415655417367816" lon="8.820754559710622">
        <ele>882.99505999999997</ele>
        <time>2012-10-13T06:30:45Z</time>
      </trkpt>
      <trkpt lat="46.415810817852616" lon="8.820921275764704">
        <ele>883.04376000000002</ele>
        <time>2012-10-13T06:31:00Z</time>
      </trkpt>
      <trkpt lat="46.415986670181155" lon="8.821005430072546">
        <ele>887.45447000000001</ele>
        <time>2012-10-13T06:31:18Z</time>
      </trkpt>
      <trkpt lat="46.416131174191833" lon="8.821167116984725">
        <ele>887.28625</ele>
        <time>2012-10-13T06:31:28Z</time>
      </trkpt>
      <trkpt lat="46.416316330432892" lon="8.821119340136647">
        <ele>878.98914000000002</ele>
        <time>2012-10-13T06:32:04Z</time>
      </trkpt>
      <trkpt lat="46.416458319872618" lon="8.82094013504684">
        <ele>863.44629999999995</ele>
        <time>2012-10-13T06:32:52Z</time>
      </trkpt>
      <trkpt lat="46.416623694822192" lon="8.821048513054848">
        <ele>854.4348</ele>
        <time>2012-10-13T06:33:16Z</time>
      </trkpt>
      <trkpt lat="46.416813209652901" lon="8.821052704006434">
        <ele>831.25323000000003</ele>
        <time>2012-10-13T06:33:55Z</time>
      </trkpt>
      <trkpt lat="46.41664657741785" lon="8.82091524079442">
        <ele>911.95450000000005</ele>
        <time>2012-10-13T06:34:15Z</time>
      </trkpt>
      <trkpt lat="46.416472988203168" lon="8.820768473669887">
        <ele>952.6336</ele>
        <time>2012-10-13T06:34:22Z</time>
      </trkpt>
      <trkpt lat="46.416290095075965" lon="8.820705525577068">
        <ele>983.33654999999999</ele>
        <time>2012-10-13T06:34:28Z</time>
      </trkpt>
      <trkpt lat="46.416124384850264" lon="8.820601841434836">
        <ele>998.68179999999995</ele>
        <time>2012-10-13T06:34:32Z</time>
      </trkpt>
      <trkpt lat="46.416019275784492" lon="8.82038651034236">
        <ele>1054.9602</ele>
        <time>2012-10-13T06:35:14Z</time>
      </trkpt>
      <trkpt lat="46.416000667959452" lon="8.820109320804477">
        <ele>1079.9947999999999</ele>
        <time>2012-10-13T06:36:23Z</time>
      </trkpt>
      <trkpt lat="46.415894469246268" lon="8.819888373836875">
        <ele>1073.1878999999999</ele>
        <time>2012-10-13T06:36:35Z</time>
      </trkpt>
      <trkpt lat="46.4157909527421" lon="8.819662984460592">
        <ele>1067.1056000000001</ele>
        <time>2012-10-13T06:36:47Z</time>
      </trkpt>
      <trkpt lat="46.415704032406211" lon="8.819431392475963">
        <ele>1060.6239</ele>
        <time>2012-10-13T06:37:00Z</time>
      </trkpt>
      <trkpt lat="46.415623649954796" lon="8.819190328940749">
        <ele>1053.1356000000001</ele>
        <time>2012-10-13T06:37:15Z</time>
      </trkpt>
      <trkpt lat="46.415758850052953" lon="8.819014811888337">
        <ele>1036.1693</ele>
        <time>2012-10-13T06:37:55Z</time>
      </trkpt>
      <trkpt lat="46.415881980210543" lon="8.818822782486677">
        <ele>1028.6714999999999</ele>
        <time>2012-10-13T06:38:56Z</time>
      </trkpt>
      <trkpt lat="46.415949454531074" lon="8.819065354764462">
        <ele>1043.8822</ele>
        <time>2012-10-13T06:40:02Z</time>
      </trkpt>
      <trkpt lat="46.416038889437914" lon="8.818838875740767">
        <ele>1040.3630000000001</ele>
        <time>2012-10-13T06:40:19Z</time>
      </trkpt>
      <trkpt lat="46.416043248027563" lon="8.819138780236244">
        <ele>1056.5545999999999</ele>
        <time>2012-10-13T06:40:55Z</time>
      </trkpt>
      <trkpt lat="46.41610468737781" lon="8.819446731358767">
        <ele>1076.9831999999999</ele>
        <time>2012-10-13T06:40:59Z</time>
      </trkpt>
      <trkpt lat="46.416182806715369" lon="8.819717466831207">
        <ele>1094.4915000000001</ele>
        <time>2012-10-13T06:41:04Z</time>
      </trkpt>
      <trkpt lat="46.416043667122722" lon="8.819518648087978">
        <ele>1158.0530000000001</ele>
        <time>2012-10-13T06:42:30Z</time>
      </trkpt>
      <trkpt lat="46.415882902219892" lon="8.81923240609467">
        <ele>1168.403</ele>
        <time>2012-10-13T06:43:33Z</time>
      </trkpt>
      <trkpt lat="46.415795395150781" lon="8.818992599844933">
        <ele>1176.1081999999999</ele>
        <time>2012-10-13T06:43:38Z</time>
      </trkpt>
      <trkpt lat="46.415978455916047" lon="8.818998634815216">
        <ele>1191.6984</ele>
        <time>2012-10-13T06:46:05Z</time>
      </trkpt>
      <trkpt lat="46.41612614504993" lon="8.818787410855293">
        <ele>1208.5340000000001</ele>
        <time>2012-10-13T06:47:40Z</time>
      </trkpt>
      <trkpt lat="46.416116254404187" lon="8.818524638190866">
        <ele>1218.0862999999999</ele>
        <time>2012-10-13T06:47:49Z</time>
      </trkpt>
      <trkpt lat="46.416045594960451" lon="8.818253483623266">
        <ele>1222.8653999999999</ele>
        <time>2012-10-13T06:48:26Z</time>
      </trkpt>
      <trkpt lat="46.415978791192174" lon="8.818010911345482">
        <ele>1228.0658000000001</ele>
        <time>2012-10-13T06:48:36Z</time>
      </trkpt>
      <trkpt lat="46.416025059297681" lon="8.817707989364862">
        <ele>1231.7637</ele>
        <time>2012-10-13T06:49:05Z</time>
      </trkpt>
      <trkpt lat="46.416108962148428" lon="8.81746206432581">
        <ele>1237.3028999999999</ele>
        <time>2012-10-13T06:49:42Z</time>
      </trkpt>
      <trkpt lat="46.416225889697671" lon="8.817250253632665">
        <ele>1244.1014</ele>
        <time>2012-10-13T06:49:49Z</time>
      </trkpt>
      <trkpt lat="46.416404508054256" lon="8.817181522026658">
        <ele>1254.2475999999999</ele>
        <time>2012-10-13T06:50:59Z</time>
      </trkpt>
      <trkpt lat="46.416598549112678" lon="8.817204907536507">
        <ele>1269.2945999999999</ele>
        <time>2012-10-13T06:52:44Z</time>
      </trkpt>
      <trkpt lat="46.41672913916409" lon="8.817004915326834">
        <ele>1272.2397000000001</ele>
        <time>2012-10-13T06:52:50Z</time>
      </trkpt>
      <trkpt lat="46.416885294020176" lon="8.816869044676423">
        <ele>1272.8779</ele>
        <time>2012-10-13T06:53:15Z</time>
      </trkpt>
      <trkpt lat="46.416839864104986" lon="8.816598895937204">
        <ele>1278.9866999999999</ele>
        <time>2012-10-13T06:53:38Z</time>
      </trkpt>
      <trkpt lat="46.416849084198475" lon="8.816333441063762">
        <ele>1280.0635</ele>
        <time>2012-10-13T06:53:53Z</time>
      </trkpt>
      <trkpt lat="46.416755793616176" lon="8.81604166701436">
        <ele>1282.2089000000001</ele>
        <time>2012-10-13T06:54:23Z</time>
      </trkpt>
      <trkpt lat="46.416736682876945" lon="8.815779900178313">
        <ele>1285.2103</ele>
        <time>2012-10-13T06:54:30Z</time>
      </trkpt>
      <trkpt lat="46.416712459176779" lon="8.815500363707542">
        <ele>1292.2026000000001</ele>
        <time>2012-10-13T06:55:22Z</time>
      </trkpt>
      <trkpt lat="46.416679183021188" lon="8.815244128927589">
        <ele>1300.6033</ele>
        <time>2012-10-13T06:55:34Z</time>
      </trkpt>
      <trkpt lat="46.416490590199828" lon="8.81520607508719">
        <ele>1303.5532000000001</ele>
        <time>2012-10-13T06:56:19Z</time>
      </trkpt>
      <trkpt lat="46.41631037928164" lon="8.815166428685188">
        <ele>1307.1919</ele>
        <time>2012-10-13T06:56:26Z</time>
      </trkpt>
      <trkpt lat="46.416407022625208" lon="8.814872726798058">
        <ele>1316.6853000000001</ele>
        <time>2012-10-13T06:57:58Z</time>
      </trkpt>
      <trkpt lat="46.416498636826873" lon="8.81452789530158">
        <ele>1326.3527999999999</ele>
        <time>2012-10-13T06:58:51Z</time>
      </trkpt>
      <trkpt lat="46.416537780314684" lon="8.814261266961694">
        <ele>1333.7695000000001</ele>
        <time>2012-10-13T06:58:56Z</time>
      </trkpt>
      <trkpt lat="46.416553538292646" lon="8.813998075202107">
        <ele>1340.1016</ele>
        <time>2012-10-13T06:59:15Z</time>
      </trkpt>
      <trkpt lat="46.416739113628864" lon="8.814016599208117">
        <ele>1345.2781</ele>
        <time>2012-10-13T07:00:16Z</time>
      </trkpt>
      <trkpt lat="46.416956372559071" lon="8.813856588676572">
        <ele>1352.9526000000001</ele>
        <time>2012-10-13T07:01:17Z</time>
      </trkpt>
      <trkpt lat="46.417036168277264" lon="8.813594989478588">
        <ele>1358.1945000000001</ele>
        <time>2012-10-13T07:01:22Z</time>
      </trkpt>
      <trkpt lat="46.417108001187444" lon="8.813348393887281">
        <ele>1363.1527000000001</ele>
        <time>2012-10-13T07:02:09Z</time>
      </trkpt>
      <trkpt lat="46.417165836319327" lon="8.813097020611167">
        <ele>1370.6301000000001</ele>
        <time>2012-10-13T07:02:14Z</time>
      </trkpt>
      <trkpt lat="46.417112443596125" lon="8.812790494412184">
        <ele>1376.8525</ele>
        <time>2012-10-13T07:03:05Z</time>
      </trkpt>
      <trkpt lat="46.417041029781103" lon="8.812549347057939">
        <ele>1381.7781</ele>
        <time>2012-10-13T07:03:14Z</time>
      </trkpt>
      <trkpt lat="46.417024936527014" lon="8.812274839729071">
        <ele>1386.8397</ele>
        <time>2012-10-13T07:04:02Z</time>
      </trkpt>
      <trkpt lat="46.41701789572835" lon="8.812013575807214">
        <ele>1392.0934</ele>
        <time>2012-10-13T07:04:10Z</time>
      </trkpt>
      <trkpt lat="46.417194586247206" lon="8.811957249417901">
        <ele>1398.8778</ele>
        <time>2012-10-13T07:05:22Z</time>
      </trkpt>
      <trkpt lat="46.417327187955379" lon="8.81171241402626">
        <ele>1409.6025</ele>
        <time>2012-10-13T07:06:11Z</time>
      </trkpt>
      <trkpt lat="46.417313693091273" lon="8.811427932232618">
        <ele>1415.2008000000001</ele>
        <time>2012-10-13T07:06:16Z</time>
      </trkpt>
      <trkpt lat="46.417325427755713" lon="8.811143366619945">
        <ele>1420.1914999999999</ele>
        <time>2012-10-13T07:06:40Z</time>
      </trkpt>
      <trkpt lat="46.417340515181422" lon="8.810705663636327">
        <ele>1426.4526000000001</ele>
        <time>2012-10-13T07:08:15Z</time>
      </trkpt>
      <trkpt lat="46.417403714731336" lon="8.810452362522483">
        <ele>1433.2012</ele>
        <time>2012-10-13T07:08:20Z</time>
      </trkpt>
      <trkpt lat="46.417422154918313" lon="8.810186488553882">
        <ele>1437.1525999999999</ele>
        <time>2012-10-13T07:09:03Z</time>
      </trkpt>
      <trkpt lat="46.417416706681252" lon="8.809909215196967">
        <ele>1441.5237999999999</ele>
        <time>2012-10-13T07:09:08Z</time>
      </trkpt>
      <trkpt lat="46.417397428303957" lon="8.809646023437381">
        <ele>1444.9275</ele>
        <time>2012-10-13T07:09:48Z</time>
      </trkpt>
      <trkpt lat="46.417372114956379" lon="8.809362379834056">
        <ele>1449.6964</ele>
        <time>2012-10-13T07:09:53Z</time>
      </trkpt>
      <trkpt lat="46.417421400547028" lon="8.809050573036075">
        <ele>1457.3145999999999</ele>
        <time>2012-10-13T07:10:58Z</time>
      </trkpt>
      <trkpt lat="46.417463980615139" lon="8.808797271922231">
        <ele>1465.6424999999999</ele>
        <time>2012-10-13T07:11:17Z</time>
      </trkpt>
      <trkpt lat="46.41751485876739" lon="8.808493847027421">
        <ele>1477.3690999999999</ele>
        <time>2012-10-13T07:16:31Z</time>
      </trkpt>
      <trkpt lat="46.417473284527659" lon="8.808103669434786">
        <ele>1485.2274</ele>
        <time>2012-10-13T07:17:11Z</time>
      </trkpt>
      <trkpt lat="46.4174176286906" lon="8.807830670848489">
        <ele>1484.1881000000001</ele>
        <time>2012-10-13T07:17:15Z</time>
      </trkpt>
      <trkpt lat="46.417355770245194" lon="8.807577537372708">
        <ele>1484.2014999999999</ele>
        <time>2012-10-13T07:17:29Z</time>
      </trkpt>
      <trkpt lat="46.417245296761394" lon="8.807333204895258">
        <ele>1485.8776</ele>
        <time>2012-10-13T07:18:24Z</time>
      </trkpt>
      <trkpt lat="46.41716105863452" lon="8.80707336589694">
        <ele>1488.1600000000001</ele>
        <time>2012-10-13T07:18:29Z</time>
      </trkpt>
      <trkpt lat="46.417184695601463" lon="8.806727277114987">
        <ele>1492.7956999999999</ele>
        <time>2012-10-13T07:19:13Z</time>
      </trkpt>
      <trkpt lat="46.417210763320327" lon="8.806469617411494">
        <ele>1498.2940000000001</ele>
        <time>2012-10-13T07:19:25Z</time>
      </trkpt>
      <trkpt lat="46.417207075282931" lon="8.806105591356754">
        <ele>1503.8773000000001</ele>
        <time>2012-10-13T07:20:17Z</time>
      </trkpt>
      <trkpt lat="46.417186791077256" lon="8.805824965238571">
        <ele>1508.4452000000001</ele>
        <time>2012-10-13T07:20:22Z</time>
      </trkpt>
      <trkpt lat="46.417178995907307" lon="8.805472422391176">
        <ele>1512.9893</ele>
        <time>2012-10-13T07:21:06Z</time>
      </trkpt>
      <trkpt lat="46.417161310091615" lon="8.805204117670655">
        <ele>1515.8125</ele>
        <time>2012-10-13T07:21:11Z</time>
      </trkpt>
      <trkpt lat="46.417074389755726" lon="8.804941512644291">
        <ele>1516.8776</ele>
        <time>2012-10-13T07:21:44Z</time>
      </trkpt>
      <trkpt lat="46.416974728927016" lon="8.804718889296055">
        <ele>1516.9172000000001</ele>
        <time>2012-10-13T07:21:48Z</time>
      </trkpt>
      <trkpt lat="46.41686693765223" lon="8.804488470777869">
        <ele>1516.6794</ele>
        <time>2012-10-13T07:22:01Z</time>
      </trkpt>
      <trkpt lat="46.41681564040482" lon="8.804234247654676">
        <ele>1517.7772</ele>
        <time>2012-10-13T07:22:51Z</time>
      </trkpt>
      <trkpt lat="46.416800552979112" lon="8.803966697305441">
        <ele>1521.7268999999999</ele>
        <time>2012-10-13T07:22:55Z</time>
      </trkpt>
      <trkpt lat="46.416668454185128" lon="8.803774248808622">
        <ele>1526.3529000000001</ele>
        <time>2012-10-13T07:23:18Z</time>
      </trkpt>
      <trkpt lat="46.416467539966106" lon="8.803628822788596">
        <ele>1528.6023</ele>
        <time>2012-10-13T07:23:58Z</time>
      </trkpt>
      <trkpt lat="46.416326723992825" lon="8.803456407040358">
        <ele>1529.2212</ele>
        <time>2012-10-13T07:24:02Z</time>
      </trkpt>
      <trkpt lat="46.416162354871631" lon="8.803338389843702">
        <ele>1528.0342000000001</ele>
        <time>2012-10-13T07:24:53Z</time>
      </trkpt>
      <trkpt lat="46.416202588006854" lon="8.80306807346642">
        <ele>1517.6950999999999</ele>
        <time>2012-10-13T07:26:25Z</time>
      </trkpt>
      <trkpt lat="46.416151626035571" lon="8.802795326337218">
        <ele>1520.5465999999999</ele>
        <time>2012-10-13T07:27:06Z</time>
      </trkpt>
      <trkpt lat="46.416027909144759" lon="8.802578318864107">
        <ele>1524.2655</ele>
        <time>2012-10-13T07:27:12Z</time>
      </trkpt>
      <trkpt lat="46.415939563885331" lon="8.802338344976306">
        <ele>1523.1522</ele>
        <time>2012-10-13T07:27:36Z</time>
      </trkpt>
      <trkpt lat="46.415842501446605" lon="8.802100969478488">
        <ele>1518.0604000000001</ele>
        <time>2012-10-13T07:27:43Z</time>
      </trkpt>
      <trkpt lat="46.415738733485341" lon="8.801844315603375">
        <ele>1516.3779999999999</ele>
        <time>2012-10-13T07:28:16Z</time>
      </trkpt>
      <trkpt lat="46.415607305243611" lon="8.801616244018078">
        <ele>1514.0293999999999</ele>
        <time>2012-10-13T07:28:23Z</time>
      </trkpt>
      <trkpt lat="46.415476463735104" lon="8.801433518528938">
        <ele>1515.7782</ele>
        <time>2012-10-13T07:29:06Z</time>
      </trkpt>
      <trkpt lat="46.415308825671673" lon="8.801325978711247">
        <ele>1523.0364999999999</ele>
        <time>2012-10-13T07:29:17Z</time>
      </trkpt>
      <trkpt lat="46.415120316669345" lon="8.801281806081533">
        <ele>1528.6780000000001</ele>
        <time>2012-10-13T07:29:56Z</time>
      </trkpt>
      <trkpt lat="46.414941782131791" lon="8.801246853545308">
        <ele>1532.8545999999999</ele>
        <time>2012-10-13T07:30:14Z</time>
      </trkpt>
      <trkpt lat="46.414728881791234" lon="8.801208129152656">
        <ele>1530.0043000000001</ele>
        <time>2012-10-13T07:30:29Z</time>
      </trkpt>
      <trkpt lat="46.414552358910441" lon="8.801113748922944">
        <ele>1527.8630000000001</ele>
        <time>2012-10-13T07:30:36Z</time>
      </trkpt>
      <trkpt lat="46.414411626756191" lon="8.800926245748997">
        <ele>1525.6965</ele>
        <time>2012-10-13T07:31:16Z</time>
      </trkpt>
      <trkpt lat="46.414321437478065" lon="8.800693899393082">
        <ele>1523.6873000000001</ele>
        <time>2012-10-13T07:31:23Z</time>
      </trkpt>
      <trkpt lat="46.414196128025651" lon="8.80048711784184">
        <ele>1524.0463999999999</ele>
        <time>2012-10-13T07:31:54Z</time>
      </trkpt>
      <trkpt lat="46.41403385438025" lon="8.800328196957707">
        <ele>1524.4947999999999</ele>
        <time>2012-10-13T07:32:00Z</time>
      </trkpt>
      <trkpt lat="46.413862444460392" lon="8.800147566944361">
        <ele>1529.6400000000001</ele>
        <time>2012-10-13T07:33:09Z</time>
      </trkpt>
      <trkpt lat="46.413720455020666" lon="8.799966853111982">
        <ele>1535.7030999999999</ele>
        <time>2012-10-13T07:33:17Z</time>
      </trkpt>
      <trkpt lat="46.413533706218004" lon="8.799850093200803">
        <ele>1533.2056</ele>
        <time>2012-10-13T07:33:55Z</time>
      </trkpt>
      <trkpt lat="46.413353914394975" lon="8.799831988289952">
        <ele>1531.3794</ele>
        <time>2012-10-13T07:34:20Z</time>
      </trkpt>
      <trkpt lat="46.413155933842063" lon="8.799740541726351">
        <ele>1529.5645</ele>
        <time>2012-10-13T07:34:51Z</time>
      </trkpt>
      <trkpt lat="46.412980500608683" lon="8.7996412999928">
        <ele>1528.6333999999999</ele>
        <time>2012-10-13T07:35:01Z</time>
      </trkpt>
      <trkpt lat="46.412797775119543" lon="8.799593942239881">
        <ele>1524.1085</ele>
        <time>2012-10-13T07:37:12Z</time>
      </trkpt>
      <trkpt lat="46.412611780688167" lon="8.799564186483622">
        <ele>1520.7765999999999</ele>
        <time>2012-10-13T07:37:22Z</time>
      </trkpt>
      <trkpt lat="46.412420840933919" lon="8.799589416012168">
        <ele>1522.6632999999999</ele>
        <time>2012-10-13T07:38:13Z</time>
      </trkpt>
      <trkpt lat="46.412241049110889" lon="8.799604000523686">
        <ele>1524.6886</ele>
        <time>2012-10-13T07:38:24Z</time>
      </trkpt>
      <trkpt lat="46.412057653069496" lon="8.799577094614506">
        <ele>1524.2244000000001</ele>
        <time>2012-10-13T07:38:39Z</time>
      </trkpt>
      <trkpt lat="46.41186629422009" lon="8.799518756568432">
        <ele>1528.5147999999999</ele>
        <time>2012-10-13T07:39:46Z</time>
      </trkpt>
      <trkpt lat="46.411675354465842" lon="8.799463100731373">
        <ele>1534.2729999999999</ele>
        <time>2012-10-13T07:39:52Z</time>
      </trkpt>
      <trkpt lat="46.411497239023447" lon="8.799333181232214">
        <ele>1538.8027</ele>
        <time>2012-10-13T07:40:51Z</time>
      </trkpt>
      <trkpt lat="46.411352148279548" lon="8.799171997234225">
        <ele>1546.1342</ele>
        <time>2012-10-13T07:40:57Z</time>
      </trkpt>
      <trkpt lat="46.411343263462186" lon="8.798882151022553">
        <ele>1556.7533000000001</ele>
        <time>2012-10-13T07:41:55Z</time>
      </trkpt>
      <trkpt lat="46.41142699867487" lon="8.798638489097357">
        <ele>1563.2548999999999</ele>
        <time>2012-10-13T07:42:03Z</time>
      </trkpt>
      <trkpt lat="46.411621123552322" lon="8.798609068617225">
        <ele>1578.6925000000001</ele>
        <time>2012-10-13T07:44:36Z</time>
      </trkpt>
      <trkpt lat="46.411852296441793" lon="8.798602195456624">
        <ele>1588.9286</ele>
        <time>2012-10-13T07:45:42Z</time>
      </trkpt>
      <trkpt lat="46.412020772695541" lon="8.798490548506379">
        <ele>1596.414</ele>
        <time>2012-10-13T07:45:48Z</time>
      </trkpt>
      <trkpt lat="46.4121438190341" lon="8.798287287354469">
        <ele>1607.8090999999999</ele>
        <time>2012-10-13T07:47:30Z</time>
      </trkpt>
      <trkpt lat="46.412215316668153" lon="8.798037925735116">
        <ele>1619.7605000000001</ele>
        <time>2012-10-13T07:47:40Z</time>
      </trkpt>
      <trkpt lat="46.412370968610048" lon="8.797866851091385">
        <ele>1633.5536</ele>
        <time>2012-10-13T07:49:51Z</time>
      </trkpt>
      <trkpt lat="46.412535170093179" lon="8.79770390689373">
        <ele>1644.902</ele>
        <time>2012-10-13T07:52:19Z</time>
      </trkpt>
      <trkpt lat="46.412565009668469" lon="8.797426382079721">
        <ele>1658.9338</ele>
        <time>2012-10-13T07:52:25Z</time>
      </trkpt>
      <trkpt lat="46.412628376856446" lon="8.797170231118798">
        <ele>1663.5996</ele>
        <time>2012-10-13T07:52:49Z</time>
      </trkpt>
      <trkpt lat="46.412760559469461" lon="8.796973004937172">
        <ele>1667.7773</ele>
        <time>2012-10-13T07:54:20Z</time>
      </trkpt>
      <trkpt lat="46.412806995213032" lon="8.796721212565899">
        <ele>1677.7334000000001</ele>
        <time>2012-10-13T07:54:31Z</time>
      </trkpt>
      <trkpt lat="46.412923503667116" lon="8.796504708006978">
        <ele>1691.1052</ele>
        <time>2012-10-13T07:55:04Z</time>
      </trkpt>
      <trkpt lat="46.412952002137899" lon="8.796247718855739">
        <ele>1692.3806999999999</ele>
        <time>2012-10-13T07:55:32Z</time>
      </trkpt>
      <trkpt lat="46.41298234462738" lon="8.795987125486136">
        <ele>1694.9485</ele>
        <time>2012-10-13T07:56:03Z</time>
      </trkpt>
      <trkpt lat="46.413043951615691" lon="8.795741535723209">
        <ele>1700.3924999999999</ele>
        <time>2012-10-13T07:56:38Z</time>
      </trkpt>
      <trkpt lat="46.413010424003005" lon="8.795469040051103">
        <ele>1704.4612</ele>
        <time>2012-10-13T07:57:19Z</time>
      </trkpt>
      <trkpt lat="46.41317437402904" lon="8.795303162187338">
        <ele>1710.9906000000001</ele>
        <time>2012-10-13T07:58:44Z</time>
      </trkpt>
      <trkpt lat="46.413340587168932" lon="8.795197550207377">
        <ele>1720.5545999999999</ele>
        <time>2012-10-13T07:58:55Z</time>
      </trkpt>
      <trkpt lat="46.413529766723514" lon="8.795083221048117">
        <ele>1734.8964000000001</ele>
        <time>2012-10-13T08:00:43Z</time>
      </trkpt>
      <trkpt lat="46.413689022883773" lon="8.794958665966988">
        <ele>1741.4701</ele>
        <time>2012-10-13T08:00:55Z</time>
      </trkpt>
      <trkpt lat="46.413781391456723" lon="8.7947300914675">
        <ele>1748.4521</ele>
        <time>2012-10-13T08:01:27Z</time>
      </trkpt>
      <trkpt lat="46.413853308185935" lon="8.794491291046143">
        <ele>1754.6785</ele>
        <time>2012-10-13T08:03:13Z</time>
      </trkpt>
      <trkpt lat="46.413956321775913" lon="8.79470955580473">
        <ele>1766.8527999999999</ele>
        <time>2012-10-13T08:03:20Z</time>
      </trkpt>
      <trkpt lat="46.41405338421464" lon="8.794941063970327">
        <ele>1771.028</ele>
        <time>2012-10-13T08:04:21Z</time>
      </trkpt>
      <trkpt lat="46.41399378888309" lon="8.795188581570983">
        <ele>1778.2661000000001</ele>
        <time>2012-10-13T08:04:30Z</time>
      </trkpt>
      <trkpt lat="46.414033602923155" lon="8.795447163283825">
        <ele>1781.1533999999999</ele>
        <time>2012-10-13T08:05:08Z</time>
      </trkpt>
      <trkpt lat="46.414212891831994" lon="8.79548991099">
        <ele>1782.9946</ele>
        <time>2012-10-13T08:05:15Z</time>
      </trkpt>
      <trkpt lat="46.414394527673721" lon="8.795502986758947">
        <ele>1783.2773</ele>
        <time>2012-10-13T08:06:04Z</time>
      </trkpt>
      <trkpt lat="46.414555124938488" lon="8.795672049745917">
        <ele>1790.1670999999999</ele>
        <time>2012-10-13T08:06:48Z</time>
      </trkpt>
      <trkpt lat="46.414748998358846" lon="8.795686466619372">
        <ele>1802.2865999999999</ele>
        <time>2012-10-13T08:08:02Z</time>
      </trkpt>
      <trkpt lat="46.414880594238639" lon="8.795503573492169">
        <ele>1810.2324000000001</ele>
        <time>2012-10-13T08:08:11Z</time>
      </trkpt>
      <trkpt lat="46.415042281150818" lon="8.795308861881495">
        <ele>1816.6884</ele>
        <time>2012-10-13T08:09:09Z</time>
      </trkpt>
      <trkpt lat="46.415194915607572" lon="8.795163435861468">
        <ele>1820.7482</ele>
        <time>2012-10-13T08:09:18Z</time>
      </trkpt>
      <trkpt lat="46.415316117927432" lon="8.794956486672163">
        <ele>1829.4174</ele>
        <time>2012-10-13T08:09:49Z</time>
      </trkpt>
      <trkpt lat="46.415410581976175" lon="8.794706957414746">
        <ele>1835.3838000000001</ele>
        <time>2012-10-13T08:10:13Z</time>
      </trkpt>
      <trkpt lat="46.415477218106389" lon="8.794461200013757">
        <ele>1838.5708</ele>
        <time>2012-10-13T08:10:44Z</time>
      </trkpt>
      <trkpt lat="46.415456430986524" lon="8.794186692684889">
        <ele>1841.1841999999999</ele>
        <time>2012-10-13T08:10:54Z</time>
      </trkpt>
      <trkpt lat="46.415538154542446" lon="8.793938420712948">
        <ele>1842.8977</ele>
        <time>2012-10-13T08:11:26Z</time>
      </trkpt>
      <trkpt lat="46.415633372962475" lon="8.793700039386749">
        <ele>1848.1938</ele>
        <time>2012-10-13T08:11:53Z</time>
      </trkpt>
      <trkpt lat="46.415560785681009" lon="8.793439194560051">
        <ele>1850.7021</ele>
        <time>2012-10-13T08:12:22Z</time>
      </trkpt>
      <trkpt lat="46.415427764877677" lon="8.793255547061563">
        <ele>1850.2594999999999</ele>
        <time>2012-10-13T08:12:27Z</time>
      </trkpt>
      <trkpt lat="46.415310753509402" lon="8.793054213747382">
        <ele>1850.1528000000001</ele>
        <time>2012-10-13T08:13:03Z</time>
      </trkpt>
      <trkpt lat="46.415260629728436" lon="8.792804097756743">
        <ele>1850.2565999999999</ele>
        <time>2012-10-13T08:13:09Z</time>
      </trkpt>
      <trkpt lat="46.415251158177853" lon="8.7925093062222">
        <ele>1853.9776999999999</ele>
        <time>2012-10-13T08:15:03Z</time>
      </trkpt>
      <trkpt lat="46.415262557566166" lon="8.79224150441587">
        <ele>1862.5198</ele>
        <time>2012-10-13T08:15:09Z</time>
      </trkpt>
      <trkpt lat="46.415222072973847" lon="8.791933469474316">
        <ele>1865.1024</ele>
        <time>2012-10-13T08:15:54Z</time>
      </trkpt>
      <trkpt lat="46.415192317217588" lon="8.791663404554129">
        <ele>1866.3989999999999</ele>
        <time>2012-10-13T08:16:01Z</time>
      </trkpt>
      <trkpt lat="46.415072875097394" lon="8.791426364332438">
        <ele>1866.5587</ele>
        <time>2012-10-13T08:17:01Z</time>
      </trkpt>
      <trkpt lat="46.414896519854665" lon="8.791314717382193">
        <ele>1866.4014</ele>
        <time>2012-10-13T08:17:08Z</time>
      </trkpt>
      <trkpt lat="46.414680602028966" lon="8.791234251111746">
        <ele>1867.7279000000001</ele>
        <time>2012-10-13T08:17:55Z</time>
      </trkpt>
      <trkpt lat="46.414494942873716" lon="8.791193347424269">
        <ele>1871.6528000000001</ele>
        <time>2012-10-13T08:18:00Z</time>
      </trkpt>
      <trkpt lat="46.414449764415622" lon="8.790894700214267">
        <ele>1883.808</ele>
        <time>2012-10-13T08:20:00Z</time>
      </trkpt>
      <trkpt lat="46.414545150473714" lon="8.790622958913446">
        <ele>1895.8276000000001</ele>
        <time>2012-10-13T08:20:55Z</time>
      </trkpt>
      <trkpt lat="46.414620419964194" lon="8.790376782417297">
        <ele>1905.0229999999999</ele>
        <time>2012-10-13T08:21:01Z</time>
      </trkpt>
      <trkpt lat="46.414769198745489" lon="8.790169917047024">
        <ele>1910.2529</ele>
        <time>2012-10-13T08:21:55Z</time>
      </trkpt>
      <trkpt lat="46.414946392178535" lon="8.790047122165561">
        <ele>1917.2550000000001</ele>
        <time>2012-10-13T08:21:59Z</time>
      </trkpt>
      <trkpt lat="46.415077401325107" lon="8.789807483553886">
        <ele>1922.0018</ele>
        <time>2012-10-13T08:22:49Z</time>
      </trkpt>
      <trkpt lat="46.415110677480698" lon="8.789540017023683">
        <ele>1923.3616</ele>
        <time>2012-10-13T08:22:58Z</time>
      </trkpt>
      <trkpt lat="46.415219809859991" lon="8.789322674274445">
        <ele>1923.5818999999999</ele>
        <time>2012-10-13T08:23:42Z</time>
      </trkpt>
      <trkpt lat="46.415362721309066" lon="8.789158724248409">
        <ele>1923.6741</ele>
        <time>2012-10-13T08:23:53Z</time>
      </trkpt>
      <trkpt lat="46.415546201169491" lon="8.789054118096829">
        <ele>1926.1201000000001</ele>
        <time>2012-10-13T08:24:27Z</time>
      </trkpt>
      <trkpt lat="46.415720293298364" lon="8.788985135033727">
        <ele>1928.242</ele>
        <time>2012-10-13T08:24:35Z</time>
      </trkpt>
      <trkpt lat="46.415896732360125" lon="8.788866195827723">
        <ele>1929.3649</ele>
        <time>2012-10-13T08:24:49Z</time>
      </trkpt>
      <trkpt lat="46.416035620495677" lon="8.788659833371639">
        <ele>1931.1895</ele>
        <time>2012-10-13T08:25:43Z</time>
      </trkpt>
      <trkpt lat="46.416159085929394" lon="8.788468474522233">
        <ele>1932.9781</ele>
        <time>2012-10-13T08:25:51Z</time>
      </trkpt>
      <trkpt lat="46.416283305734396" lon="8.788266386836767">
        <ele>1938.1234999999999</ele>
        <time>2012-10-13T08:26:37Z</time>
      </trkpt>
      <trkpt lat="46.416424121707678" lon="8.788086259737611">
        <ele>1945.3815</ele>
        <time>2012-10-13T08:27:16Z</time>
      </trkpt>
      <trkpt lat="46.416605841368437" lon="8.788014510646462">
        <ele>1951.6777</ele>
        <time>2012-10-13T08:27:53Z</time>
      </trkpt>
      <trkpt lat="46.416798122227192" lon="8.787963213399053">
        <ele>1960.4879000000001</ele>
        <time>2012-10-13T08:27:58Z</time>
      </trkpt>
      <trkpt lat="46.416969867423177" lon="8.787816278636456">
        <ele>1963.9773</ele>
        <time>2012-10-13T08:28:39Z</time>
      </trkpt>
      <trkpt lat="46.417096266523004" lon="8.78761955536902">
        <ele>1965.8431</ele>
        <time>2012-10-13T08:28:43Z</time>
      </trkpt>
      <trkpt lat="46.41722559928894" lon="8.787375977262855">
        <ele>1968.7274</ele>
        <time>2012-10-13T08:29:30Z</time>
      </trkpt>
      <trkpt lat="46.417345125228167" lon="8.787170452997088">
        <ele>1972.9413999999999</ele>
        <time>2012-10-13T08:29:35Z</time>
      </trkpt>
      <trkpt lat="46.417489210143685" lon="8.786933580413461">
        <ele>1977.3768</ele>
        <time>2012-10-13T08:30:30Z</time>
      </trkpt>
      <trkpt lat="46.417542938143015" lon="8.786520520225167">
        <ele>1983.0273</ele>
        <time>2012-10-13T08:31:33Z</time>
      </trkpt>
      <trkpt lat="46.417477643117309" lon="8.786250622943044">
        <ele>1987.4513999999999</ele>
        <time>2012-10-13T08:31:38Z</time>
      </trkpt>
      <trkpt lat="46.417331798002124" lon="8.785703117027879">
        <ele>1991.0785000000001</ele>
        <time>2012-10-13T08:33:47Z</time>
      </trkpt>
      <trkpt lat="46.417459705844522" lon="8.785994220525026">
        <ele>2343.6752999999999</ele>
        <time>2012-10-13T08:39:01Z</time>
      </trkpt>
      <trkpt lat="46.417392566800117" lon="8.786363527178764">
        <ele>1989.1222</ele>
        <time>2012-10-13T08:57:22Z</time>
      </trkpt>
      <trkpt lat="46.417431039735675" lon="8.785998243838549">
        <ele>1976.404</ele>
        <time>2012-10-13T08:57:26Z</time>
      </trkpt>
      <trkpt lat="46.417266419157386" lon="8.786207288503647">
        <ele>1964.6560999999999</ele>
        <time>2012-10-13T08:57:30Z</time>
      </trkpt>
      <trkpt lat="46.417417963966727" lon="8.78606278449297">
        <ele>1956.9300000000001</ele>
        <time>2012-10-13T08:58:31Z</time>
      </trkpt>
      <trkpt lat="46.417293073609471" lon="8.785249656066299">
        <ele>1950.4780000000001</ele>
        <time>2012-10-13T09:01:51Z</time>
      </trkpt>
      <trkpt lat="46.417297935113311" lon="8.78551259636879">
        <ele>1952.9065000000001</ele>
        <time>2012-10-13T09:02:07Z</time>
      </trkpt>
      <trkpt lat="46.417520139366388" lon="8.786070076748729">
        <ele>1948.3530000000001</ele>
        <time>2012-10-13T09:05:26Z</time>
      </trkpt>
      <trkpt lat="46.417808057740331" lon="8.785462640225887">
        <ele>1948.3342</ele>
        <time>2012-10-13T09:50:34Z</time>
      </trkpt>
      <trkpt lat="46.418000841513276" lon="8.785497006028891">
        <ele>1946.6702</ele>
        <time>2012-10-13T09:50:41Z</time>
      </trkpt>
      <trkpt lat="46.417374880984426" lon="8.78543933853507">
        <ele>1944.5924</ele>
        <time>2012-10-13T09:50:52Z</time>
      </trkpt>
      <trkpt lat="46.41713373363018" lon="8.785608569160104">
        <ele>1945.9922999999999</ele>
        <time>2012-10-13T09:50:54Z</time>
      </trkpt>
      <trkpt lat="46.417346466332674" lon="8.785513769835234">
        <ele>1950.5911000000001</ele>
        <time>2012-10-13T09:50:58Z</time>
      </trkpt>
      <trkpt lat="46.41745082102716" lon="8.785734716802836">
        <ele>1951.0944999999999</ele>
        <time>2012-10-13T09:51:02Z</time>
      </trkpt>
      <trkpt lat="46.417674534022808" lon="8.785609910264611">
        <ele>1950.9154000000001</ele>
        <time>2012-10-13T09:51:06Z</time>
      </trkpt>
      <trkpt lat="46.417362475767732" lon="8.785638911649585">
        <ele>1950.499</ele>
        <time>2012-10-13T09:51:08Z</time>
      </trkpt>
      <trkpt lat="46.417179834097624" lon="8.785591050982475">
        <ele>1945.7559000000001</ele>
        <time>2012-10-13T09:51:15Z</time>
      </trkpt>
      <trkpt lat="46.417002640664577" lon="8.785817865282297">
        <ele>1945.0364</ele>
        <time>2012-10-13T09:51:16Z</time>
      </trkpt>
      <trkpt lat="46.417681742459536" lon="8.785879053175449">
        <ele>1945.8468</ele>
        <time>2012-10-13T10:47:59Z</time>
      </trkpt>
      <trkpt lat="46.417433135211468" lon="8.786125564947724">
        <ele>1975.6305</ele>
        <time>2012-10-13T10:48:06Z</time>
      </trkpt>
      <trkpt lat="46.417586943134665" lon="8.7859714217484">
        <ele>1975.3424</ele>
        <time>2012-10-13T10:48:07Z</time>
      </trkpt>
      <trkpt lat="46.417422154918313" lon="8.786098323762417">
        <ele>2004.2827</ele>
        <time>2012-10-13T10:48:11Z</time>
      </trkpt>
      <trkpt lat="46.417578142136335" lon="8.785954490303993">
        <ele>1992.5957000000001</ele>
        <time>2012-10-13T10:48:56Z</time>
      </trkpt>
      <trkpt lat="46.417574873194098" lon="8.786217598244548">
        <ele>1985.8997999999999</ele>
        <time>2012-10-13T10:50:31Z</time>
      </trkpt>
      <trkpt lat="46.417529946193099" lon="8.786472408100963">
        <ele>1984.5568000000001</ele>
        <time>2012-10-13T10:51:15Z</time>
      </trkpt>
      <trkpt lat="46.41750949434936" lon="8.786744400858879">
        <ele>1984.0204000000001</ele>
        <time>2012-10-13T10:51:35Z</time>
      </trkpt>
      <trkpt lat="46.417439002543688" lon="8.786993594840169">
        <ele>1981.6086</ele>
        <time>2012-10-13T10:52:08Z</time>
      </trkpt>
      <trkpt lat="46.417282428592443" lon="8.787127118557692">
        <ele>1978.3842999999999</ele>
        <time>2012-10-13T10:52:33Z</time>
      </trkpt>
      <trkpt lat="46.417187880724669" lon="8.787349909543991">
        <ele>1972.2098000000001</ele>
        <time>2012-10-13T10:53:23Z</time>
      </trkpt>
      <trkpt lat="46.417056284844875" lon="8.787548895925283">
        <ele>1968.6116999999999</ele>
        <time>2012-10-13T10:57:55Z</time>
      </trkpt>
      <trkpt lat="46.416952013969421" lon="8.787761628627777">
        <ele>1970.2936999999999</ele>
        <time>2012-10-13T10:58:18Z</time>
      </trkpt>
      <trkpt lat="46.416802564635873" lon="8.78791225142777">
        <ele>1967.2806</ele>
        <time>2012-10-13T10:58:47Z</time>
      </trkpt>
      <trkpt lat="46.416623359546065" lon="8.787944857031107">
        <ele>1965.6287</ele>
        <time>2012-10-13T10:59:05Z</time>
      </trkpt>
      <trkpt lat="46.416456392034888" lon="8.788056503981352">
        <ele>1963.9005999999999</ele>
        <time>2012-10-13T10:59:29Z</time>
      </trkpt>
      <trkpt lat="46.416301745921373" lon="8.788207797333598">
        <ele>1958.7823000000001</ele>
        <time>2012-10-13T10:59:58Z</time>
      </trkpt>
      <trkpt lat="46.416218262165785" lon="8.788442239165306">
        <ele>1956.9528</ele>
        <time>2012-10-13T11:00:35Z</time>
      </trkpt>
      <trkpt lat="46.416048277169466" lon="8.788544163107872">
        <ele>1952.8905</ele>
        <time>2012-10-13T11:01:15Z</time>
      </trkpt>
      <trkpt lat="46.415930595248938" lon="8.788747591897845">
        <ele>1947.8914</ele>
        <time>2012-10-13T11:01:40Z</time>
      </trkpt>
      <trkpt lat="46.415771003812551" lon="8.788882875815034">
        <ele>1940.3539000000001</ele>
        <time>2012-10-13T11:02:14Z</time>
      </trkpt>
      <trkpt lat="46.415610909461975" lon="8.789006341248751">
        <ele>1933.4548</ele>
        <time>2012-10-13T11:02:52Z</time>
      </trkpt>
      <trkpt lat="46.415428519248962" lon="8.789017321541905">
        <ele>1932.5204000000001</ele>
        <time>2012-10-13T11:03:11Z</time>
      </trkpt>
      <trkpt lat="46.415303125977516" lon="8.789227539673448">
        <ele>1930.9928</ele>
        <time>2012-10-13T11:03:24Z</time>
      </trkpt>
      <trkpt lat="46.415127776563168" lon="8.789309347048402">
        <ele>1929.5767000000001</ele>
        <time>2012-10-13T11:03:43Z</time>
      </trkpt>
      <trkpt lat="46.415011016651988" lon="8.789512608200312">
        <ele>1928.4280000000001</ele>
        <time>2012-10-13T11:04:00Z</time>
      </trkpt>
      <trkpt lat="46.414916133508086" lon="8.78974998369813">
        <ele>1924.4426000000001</ele>
        <time>2012-10-13T11:04:27Z</time>
      </trkpt>
      <trkpt lat="46.414791997522116" lon="8.789941258728504">
        <ele>1921.7329999999999</ele>
        <time>2012-10-13T11:04:58Z</time>
      </trkpt>
      <trkpt lat="46.414629304781556" lon="8.790081320330501">
        <ele>1919.7030999999999</ele>
        <time>2012-10-13T11:05:22Z</time>
      </trkpt>
      <trkpt lat="46.414525788277388" lon="8.7903006747365">
        <ele>1917.6220000000001</ele>
        <time>2012-10-13T11:05:38Z</time>
      </trkpt>
      <trkpt lat="46.414405507966876" lon="8.790496559813619">
        <ele>1915.5717999999999</ele>
        <time>2012-10-13T11:05:58Z</time>
      </trkpt>
      <trkpt lat="46.414268128573895" lon="8.790682051330805">
        <ele>1913.1144999999999</ele>
        <time>2012-10-13T11:06:27Z</time>
      </trkpt>
      <trkpt lat="46.414321269840002" lon="8.79093392752111">
        <ele>1909.6958</ele>
        <time>2012-10-13T11:06:49Z</time>
      </trkpt>
      <trkpt lat="46.414328394457698" lon="8.79120466299355">
        <ele>1894.8150000000001</ele>
        <time>2012-10-13T11:07:52Z</time>
      </trkpt>
      <trkpt lat="46.414463007822633" lon="8.791379677131772">
        <ele>1887.6765</ele>
        <time>2012-10-13T11:08:33Z</time>
      </trkpt>
      <trkpt lat="46.41461824066937" lon="8.791527198627591">
        <ele>1885.0038</ele>
        <time>2012-10-13T11:09:02Z</time>
      </trkpt>
      <trkpt lat="46.414790907874703" lon="8.791613280773163">
        <ele>1874.6086</ele>
        <time>2012-10-13T11:10:02Z</time>
      </trkpt>
      <trkpt lat="46.414983356371522" lon="8.791646724566817">
        <ele>1877.4757999999999</ele>
        <time>2012-10-13T11:10:47Z</time>
      </trkpt>
      <trkpt lat="46.415021242573857" lon="8.791908826678991">
        <ele>1872.4539</ele>
        <time>2012-10-13T11:11:56Z</time>
      </trkpt>
      <trkpt lat="46.415048064664006" lon="8.792171515524387">
        <ele>1872.9640999999999</ele>
        <time>2012-10-13T11:12:23Z</time>
      </trkpt>
      <trkpt lat="46.415085280314088" lon="8.79243353381753">
        <ele>1869.3072999999999</ele>
        <time>2012-10-13T11:12:45Z</time>
      </trkpt>
      <trkpt lat="46.415145630016923" lon="8.792694211006165">
        <ele>1864.9024999999999</ele>
        <time>2012-10-13T11:13:00Z</time>
      </trkpt>
      <trkpt lat="46.415233723819256" lon="8.792928485199809">
        <ele>1862.3176000000001</ele>
        <time>2012-10-13T11:13:21Z</time>
      </trkpt>
      <trkpt lat="46.415328187867999" lon="8.793162424117327">
        <ele>1856.0182</ele>
        <time>2012-10-13T11:13:41Z</time>
      </trkpt>
      <trkpt lat="46.415457772091031" lon="8.793350933119655">
        <ele>1853.1528000000001</ele>
        <time>2012-10-13T11:14:02Z</time>
      </trkpt>
      <trkpt lat="46.415499346330762" lon="8.793606078252196">
        <ele>1851.8507999999999</ele>
        <time>2012-10-13T11:14:22Z</time>
      </trkpt>
      <trkpt lat="46.415536813437939" lon="8.793869018554688">
        <ele>1849.5485000000001</ele>
        <time>2012-10-13T11:14:41Z</time>
      </trkpt>
      <trkpt lat="46.415386274456978" lon="8.794024167582393">
        <ele>1851.7101</ele>
        <time>2012-10-13T11:15:07Z</time>
      </trkpt>
      <trkpt lat="46.415378144010901" lon="8.794284677132964">
        <ele>1848.6766</ele>
        <time>2012-10-13T11:17:10Z</time>
      </trkpt>
      <trkpt lat="46.415305975824594" lon="8.794524734839797">
        <ele>1848.1161999999999</ele>
        <time>2012-10-13T11:17:52Z</time>
      </trkpt>
      <trkpt lat="46.415216373279691" lon="8.794762613251805">
        <ele>1848.1912</ele>
        <time>2012-10-13T11:18:15Z</time>
      </trkpt>
      <trkpt lat="46.415219390764832" lon="8.795024296268821">
        <ele>1844.5823</ele>
        <time>2012-10-13T11:18:35Z</time>
      </trkpt>
      <trkpt lat="46.415045130997896" lon="8.795115491375327">
        <ele>1841.6902</ele>
        <time>2012-10-13T11:19:08Z</time>
      </trkpt>
      <trkpt lat="46.414877073839307" lon="8.795210458338261">
        <ele>1832.404</ele>
        <time>2012-10-13T11:19:43Z</time>
      </trkpt>
      <trkpt lat="46.414726115763187" lon="8.795367619022727">
        <ele>1828.1297999999999</ele>
        <time>2012-10-13T11:20:06Z</time>
      </trkpt>
      <trkpt lat="46.414610696956515" lon="8.795573646202683">
        <ele>1822.788</ele>
        <time>2012-10-13T11:20:39Z</time>
      </trkpt>
      <trkpt lat="46.414452865719795" lon="8.795699374750257">
        <ele>1815.8715</ele>
        <time>2012-10-13T11:21:23Z</time>
      </trkpt>
      <trkpt lat="46.414309116080403" lon="8.79552754573524">
        <ele>1796.4949999999999</ele>
        <time>2012-10-13T11:22:31Z</time>
      </trkpt>
      <trkpt lat="46.414351528510451" lon="8.795271310955286">
        <ele>1791.6799000000001</ele>
        <time>2012-10-13T11:23:03Z</time>
      </trkpt>
      <trkpt lat="46.414382793009281" lon="8.795013064518571">
        <ele>1785.6130000000001</ele>
        <time>2012-10-13T11:23:26Z</time>
      </trkpt>
      <trkpt lat="46.414245497435331" lon="8.794826064258814">
        <ele>1780.7263</ele>
        <time>2012-10-13T11:23:55Z</time>
      </trkpt>
      <trkpt lat="46.414246503263712" lon="8.794555412605405">
        <ele>1779.7247</ele>
        <time>2012-10-13T11:24:34Z</time>
      </trkpt>
      <trkpt lat="46.414093533530831" lon="8.794409735128284">
        <ele>1780.3109999999999</ele>
        <time>2012-10-13T11:24:57Z</time>
      </trkpt>
      <trkpt lat="46.413940731436014" lon="8.794262045994401">
        <ele>1772.915</ele>
        <time>2012-10-13T11:25:07Z</time>
      </trkpt>
      <trkpt lat="46.413764460012317" lon="8.794339746236801">
        <ele>1770.2772</ele>
        <time>2012-10-13T11:25:22Z</time>
      </trkpt>
      <trkpt lat="46.413657087832689" lon="8.794555328786373">
        <ele>1766.8325</ele>
        <time>2012-10-13T11:25:53Z</time>
      </trkpt>
      <trkpt lat="46.413491042330861" lon="8.794663036242127">
        <ele>1766.9666</ele>
        <time>2012-10-13T11:26:19Z</time>
      </trkpt>
      <trkpt lat="46.413608388975263" lon="8.794861268252134">
        <ele>1768.7018</ele>
        <time>2012-10-13T11:27:21Z</time>
      </trkpt>
      <trkpt lat="46.413417533040047" lon="8.794859759509563">
        <ele>1768.7139999999999</ele>
        <time>2012-10-13T11:27:32Z</time>
      </trkpt>
      <trkpt lat="46.413281159475446" lon="8.794677369296551">
        <ele>1768.4259999999999</ele>
        <time>2012-10-13T11:27:53Z</time>
      </trkpt>
      <trkpt lat="46.41310446895659" lon="8.794769151136279">
        <ele>1766.5458000000001</ele>
        <time>2012-10-13T11:28:18Z</time>
      </trkpt>
      <trkpt lat="46.412951666861773" lon="8.794918516650796">
        <ele>1764.8181999999999</ele>
        <time>2012-10-13T11:28:41Z</time>
      </trkpt>
      <trkpt lat="46.412872290238738" lon="8.795154551044107">
        <ele>1755.5572999999999</ele>
        <time>2012-10-13T11:29:39Z</time>
      </trkpt>
      <trkpt lat="46.412697695195675" lon="8.795233424752951">
        <ele>1744.569</ele>
        <time>2012-10-13T11:30:28Z</time>
      </trkpt>
      <trkpt lat="46.412654025480151" lon="8.79549234174192">
        <ele>1734.4260999999999</ele>
        <time>2012-10-13T11:30:55Z</time>
      </trkpt>
      <trkpt lat="46.412584288045764" lon="8.795734494924545">
        <ele>1727.0669</ele>
        <time>2012-10-13T11:31:22Z</time>
      </trkpt>
      <trkpt lat="46.412583952769637" lon="8.795996597036719">
        <ele>1716.4349</ele>
        <time>2012-10-13T11:31:46Z</time>
      </trkpt>
      <trkpt lat="46.412684535607696" lon="8.796228105202317">
        <ele>1718.1017999999999</ele>
        <time>2012-10-13T11:32:09Z</time>
      </trkpt>
      <trkpt lat="46.412581019103527" lon="8.796443855389953">
        <ele>1715.127</ele>
        <time>2012-10-13T11:32:59Z</time>
      </trkpt>
      <trkpt lat="46.412409860640764" lon="8.796535637229681">
        <ele>1710.0044</ele>
        <time>2012-10-13T11:33:19Z</time>
      </trkpt>
      <trkpt lat="46.412410195916891" lon="8.796800589188933">
        <ele>1699.3829000000001</ele>
        <time>2012-10-13T11:33:53Z</time>
      </trkpt>
      <trkpt lat="46.412578085437417" lon="8.796941069886088">
        <ele>1688.8054</ele>
        <time>2012-10-13T11:34:04Z</time>
      </trkpt>
      <trkpt lat="46.412480687722564" lon="8.797165872529149">
        <ele>1671.9903999999999</ele>
        <time>2012-10-13T11:35:08Z</time>
      </trkpt>
      <trkpt lat="46.41251522116363" lon="8.797425627708435">
        <ele>1672.2819</ele>
        <time>2012-10-13T11:35:30Z</time>
      </trkpt>
      <trkpt lat="46.412600884214044" lon="8.797661243006587">
        <ele>1662.6548</ele>
        <time>2012-10-13T11:35:46Z</time>
      </trkpt>
      <trkpt lat="46.412424864247441" lon="8.797725029289722">
        <ele>1647.3599999999999</ele>
        <time>2012-10-13T11:37:37Z</time>
      </trkpt>
      <trkpt lat="46.412245407700539" lon="8.797706170007587">
        <ele>1641.249</ele>
        <time>2012-10-13T11:38:37Z</time>
      </trkpt>
      <trkpt lat="46.412290334701538" lon="8.797958381474018">
        <ele>1633.6840999999999</ele>
        <time>2012-10-13T11:39:04Z</time>
      </trkpt>
      <trkpt lat="46.41224255785346" lon="8.79821696318686">
        <ele>1624.2786000000001</ele>
        <time>2012-10-13T11:39:46Z</time>
      </trkpt>
      <trkpt lat="46.412065196782351" lon="8.798157954588532">
        <ele>1618.6494</ele>
        <time>2012-10-13T11:40:41Z</time>
      </trkpt>
      <trkpt lat="46.412091096863151" lon="8.798417542129755">
        <ele>1614.8516999999999</ele>
        <time>2012-10-13T11:40:54Z</time>
      </trkpt>
      <trkpt lat="46.411924548447132" lon="8.798517789691687">
        <ele>1605.6594</ele>
        <time>2012-10-13T11:41:38Z</time>
      </trkpt>
      <trkpt lat="46.411816589534283" lon="8.798737311735749">
        <ele>1598</ele>
        <time>2012-10-13T11:42:09Z</time>
      </trkpt>
      <trkpt lat="46.411809045821428" lon="8.798474119976163">
        <ele>1590.6996999999999</ele>
        <time>2012-10-13T11:42:55Z</time>
      </trkpt>
      <trkpt lat="46.411624979227781" lon="8.798422990366817">
        <ele>1584.3702000000001</ele>
        <time>2012-10-13T11:43:20Z</time>
      </trkpt>
      <trkpt lat="46.411469243466854" lon="8.798574451357126">
        <ele>1568.8759</ele>
        <time>2012-10-13T11:44:23Z</time>
      </trkpt>
      <trkpt lat="46.411305293440819" lon="8.798719123005867">
        <ele>1571.4464</ele>
        <time>2012-10-13T11:45:55Z</time>
      </trkpt>
      <trkpt lat="46.411227341741323" lon="8.798957839608192">
        <ele>1572.4024999999999</ele>
        <time>2012-10-13T11:46:15Z</time>
      </trkpt>
      <trkpt lat="46.411289786919951" lon="8.799218516796827">
        <ele>1572.0746999999999</ele>
        <time>2012-10-13T11:46:35Z</time>
      </trkpt>
      <trkpt lat="46.411443930119276" lon="8.799375845119357">
        <ele>1564.2674999999999</ele>
        <time>2012-10-13T11:46:55Z</time>
      </trkpt>
      <trkpt lat="46.411579633131623" lon="8.799551194533706">
        <ele>1560.0884000000001</ele>
        <time>2012-10-13T11:47:10Z</time>
      </trkpt>
      <trkpt lat="46.411685580387712" lon="8.799761412665248">
        <ele>1550.4861000000001</ele>
        <time>2012-10-13T11:47:29Z</time>
      </trkpt>
      <trkpt lat="46.411860594525933" lon="8.799690417945385">
        <ele>1548.2338999999999</ele>
        <time>2012-10-13T11:47:43Z</time>
      </trkpt>
      <trkpt lat="46.412041056901217" lon="8.799719754606485">
        <ele>1541.7399</ele>
        <time>2012-10-13T11:48:16Z</time>
      </trkpt>
      <trkpt lat="46.41221959143877" lon="8.799800388514996">
        <ele>1538.7322999999999</ele>
        <time>2012-10-13T11:48:51Z</time>
      </trkpt>
      <trkpt lat="46.412402987480164" lon="8.79975026473403">
        <ele>1536.6778999999999</ele>
        <time>2012-10-13T11:49:12Z</time>
      </trkpt>
      <trkpt lat="46.412593508139253" lon="8.799771219491959">
        <ele>1526.6947</ele>
        <time>2012-10-13T11:49:49Z</time>
      </trkpt>
      <trkpt lat="46.412782520055771" lon="8.79977373406291">
        <ele>1524.4294</ele>
        <time>2012-10-13T11:50:10Z</time>
      </trkpt>
      <trkpt lat="46.412962479516864" lon="8.799729477614164">
        <ele>1523.152</ele>
        <time>2012-10-13T11:50:36Z</time>
      </trkpt>
      <trkpt lat="46.413149563595653" lon="8.799770716577768">
        <ele>1522.1934000000001</ele>
        <time>2012-10-13T11:51:10Z</time>
      </trkpt>
      <trkpt lat="46.413326589390635" lon="8.799818493425846">
        <ele>1522.6759</ele>
        <time>2012-10-13T11:51:43Z</time>
      </trkpt>
      <trkpt lat="46.413503028452396" lon="8.799875155091286">
        <ele>1518.9528</ele>
        <time>2012-10-13T11:52:08Z</time>
      </trkpt>
      <trkpt lat="46.413673013448715" lon="8.799961823970079">
        <ele>1517.1302000000001</ele>
        <time>2012-10-13T11:52:34Z</time>
      </trkpt>
      <trkpt lat="46.413841070607305" lon="8.800054779276252">
        <ele>1516.7370000000001</ele>
        <time>2012-10-13T11:52:59Z</time>
      </trkpt>
      <trkpt lat="46.413939809426665" lon="8.800277737900615">
        <ele>1516.3379</ele>
        <time>2012-10-13T11:53:48Z</time>
      </trkpt>
      <trkpt lat="46.414077607914805" lon="8.800448812544346">
        <ele>1515.6581000000001</ele>
        <time>2012-10-13T11:54:07Z</time>
      </trkpt>
      <trkpt lat="46.414220687001944" lon="8.800612092018127">
        <ele>1517.671</ele>
        <time>2012-10-13T11:54:37Z</time>
      </trkpt>
      <trkpt lat="46.414292100816965" lon="8.800865728408098">
        <ele>1518.4937</ele>
        <time>2012-10-13T11:54:53Z</time>
      </trkpt>
      <trkpt lat="46.414390588179231" lon="8.80109891295433">
        <ele>1519.8386</ele>
        <time>2012-10-13T11:55:10Z</time>
      </trkpt>
      <trkpt lat="46.414535259827971" lon="8.801275016739965">
        <ele>1517.3633</ele>
        <time>2012-10-13T11:55:27Z</time>
      </trkpt>
      <trkpt lat="46.414709016680717" lon="8.801348442211747">
        <ele>1514.481</ele>
        <time>2012-10-13T11:55:45Z</time>
      </trkpt>
      <trkpt lat="46.414887802675366" lon="8.801398063078523">
        <ele>1512.8308999999999</ele>
        <time>2012-10-13T11:56:07Z</time>
      </trkpt>
      <trkpt lat="46.415070192888379" lon="8.801437625661492">
        <ele>1512.6664000000001</ele>
        <time>2012-10-13T11:56:23Z</time>
      </trkpt>
      <trkpt lat="46.415262222290039" lon="8.8014648668468">
        <ele>1510.3468</ele>
        <time>2012-10-13T11:56:38Z</time>
      </trkpt>
      <trkpt lat="46.415437068790197" lon="8.80135883577168">
        <ele>1506.5352</ele>
        <time>2012-10-13T11:56:56Z</time>
      </trkpt>
      <trkpt lat="46.415589535608888" lon="8.80149906501174">
        <ele>1509.5923</ele>
        <time>2012-10-13T11:57:50Z</time>
      </trkpt>
      <trkpt lat="46.415639575570822" lon="8.801759323105216">
        <ele>1513.0890999999999</ele>
        <time>2012-10-13T11:58:13Z</time>
      </trkpt>
      <trkpt lat="46.415709061548114" lon="8.801999296993017">
        <ele>1513.9982</ele>
        <time>2012-10-13T11:58:27Z</time>
      </trkpt>
      <trkpt lat="46.415812158957124" lon="8.802224099636078">
        <ele>1517.4024999999999</ele>
        <time>2012-10-13T11:58:45Z</time>
      </trkpt>
      <trkpt lat="46.415890194475651" lon="8.802469940856099">
        <ele>1520.0926999999999</ele>
        <time>2012-10-13T11:59:05Z</time>
      </trkpt>
      <trkpt lat="46.416061436757445" lon="8.802568092942238">
        <ele>1521.0009</ele>
        <time>2012-10-13T11:59:28Z</time>
      </trkpt>
      <trkpt lat="46.416070237755775" lon="8.802830278873444">
        <ele>1523.2901999999999</ele>
        <time>2012-10-13T11:59:56Z</time>
      </trkpt>
      <trkpt lat="46.416051462292671" lon="8.803091626614332">
        <ele>1524.9306999999999</ele>
        <time>2012-10-13T12:00:15Z</time>
      </trkpt>
      <trkpt lat="46.416060850024223" lon="8.803363954648376">
        <ele>1526.9601</ele>
        <time>2012-10-13T12:00:33Z</time>
      </trkpt>
      <trkpt lat="46.416155230253935" lon="8.803595378994942">
        <ele>1525.7736</ele>
        <time>2012-10-13T12:00:49Z</time>
      </trkpt>
      <trkpt lat="46.416315324604511" lon="8.803726891055703">
        <ele>1522.4575</ele>
        <time>2012-10-13T12:01:09Z</time>
      </trkpt>
      <trkpt lat="46.416500313207507" lon="8.803771566599608">
        <ele>1516.5836999999999</ele>
        <time>2012-10-13T12:01:35Z</time>
      </trkpt>
      <trkpt lat="46.416676752269268" lon="8.803863264620304">
        <ele>1519.5542</ele>
        <time>2012-10-13T12:01:57Z</time>
      </trkpt>
      <trkpt lat="46.416732743382454" lon="8.804121427237988">
        <ele>1524.4760000000001</ele>
        <time>2012-10-13T12:02:42Z</time>
      </trkpt>
      <trkpt lat="46.416789488866925" lon="8.8043746445328">
        <ele>1517.9096999999999</ele>
        <time>2012-10-13T12:02:58Z</time>
      </trkpt>
      <trkpt lat="46.416891748085618" lon="8.80459550768137">
        <ele>1514.9612999999999</ele>
        <time>2012-10-13T12:03:16Z</time>
      </trkpt>
      <trkpt lat="46.417004317045212" lon="8.80480170249939">
        <ele>1511.8676</ele>
        <time>2012-10-13T12:03:33Z</time>
      </trkpt>
      <trkpt lat="46.417091991752386" lon="8.805034719407558">
        <ele>1511.1134</ele>
        <time>2012-10-13T12:03:50Z</time>
      </trkpt>
      <trkpt lat="46.417194753885269" lon="8.805252816528082">
        <ele>1509.8246999999999</ele>
        <time>2012-10-13T12:04:08Z</time>
      </trkpt>
      <trkpt lat="46.417219145223498" lon="8.805513745173812">
        <ele>1509.0613000000001</ele>
        <time>2012-10-13T12:04:34Z</time>
      </trkpt>
      <trkpt lat="46.417226521298289" lon="8.80577995441854">
        <ele>1508.8433</ele>
        <time>2012-10-13T12:04:56Z</time>
      </trkpt>
      <trkpt lat="46.417207913473248" lon="8.806049348786473">
        <ele>1506.9967999999999</ele>
        <time>2012-10-13T12:05:21Z</time>
      </trkpt>
      <trkpt lat="46.417252589017153" lon="8.806304661557078">
        <ele>1503.0985000000001</ele>
        <time>2012-10-13T12:05:40Z</time>
      </trkpt>
      <trkpt lat="46.417279411107302" lon="8.806573888286948">
        <ele>1498.4776999999999</ele>
        <time>2012-10-13T12:06:00Z</time>
      </trkpt>
      <trkpt lat="46.417211266234517" lon="8.806826770305634">
        <ele>1496.9521</ele>
        <time>2012-10-13T12:06:21Z</time>
      </trkpt>
      <trkpt lat="46.417181845754385" lon="8.807089040055871">
        <ele>1493.508</ele>
        <time>2012-10-13T12:06:42Z</time>
      </trkpt>
      <trkpt lat="46.41719282604754" lon="8.807349549606443">
        <ele>1490.2777000000001</ele>
        <time>2012-10-13T12:07:08Z</time>
      </trkpt>
      <trkpt lat="46.417301287874579" lon="8.807558510452509">
        <ele>1480.9937</ele>
        <time>2012-10-13T12:07:25Z</time>
      </trkpt>
      <trkpt lat="46.417424669489264" lon="8.807353992015123">
        <ele>1472.4733000000001</ele>
        <time>2012-10-13T12:13:33Z</time>
      </trkpt>
      <trkpt lat="46.417406899854541" lon="8.807623302564025">
        <ele>1472.7499</ele>
        <time>2012-10-13T12:14:05Z</time>
      </trkpt>
      <trkpt lat="46.41741712577641" lon="8.807885069400072">
        <ele>1476.6066000000001</ele>
        <time>2012-10-13T12:14:19Z</time>
      </trkpt>
      <trkpt lat="46.41746792010963" lon="8.808136945590377">
        <ele>1480.9988000000001</ele>
        <time>2012-10-13T12:14:34Z</time>
      </trkpt>
      <trkpt lat="46.417567078024149" lon="8.808361245319247">
        <ele>1480.2228</ele>
        <time>2012-10-13T12:14:52Z</time>
      </trkpt>
      <trkpt lat="46.417567580938339" lon="8.808625526726246">
        <ele>1479.3253999999999</ele>
        <time>2012-10-13T12:15:33Z</time>
      </trkpt>
      <trkpt lat="46.417715856805444" lon="8.808776820078492">
        <ele>1481.4779000000001</ele>
        <time>2012-10-13T12:16:12Z</time>
      </trkpt>
      <trkpt lat="46.417541010305285" lon="8.80870339460671">
        <ele>1485.1282000000001</ele>
        <time>2012-10-13T12:17:21Z</time>
      </trkpt>
      <trkpt lat="46.417376473546028" lon="8.808589987456799">
        <ele>1486.6188</ele>
        <time>2012-10-13T12:17:43Z</time>
      </trkpt>
      <trkpt lat="46.417430955916643" lon="8.808842366561294">
        <ele>1488.4315999999999</ele>
        <time>2012-10-13T12:18:04Z</time>
      </trkpt>
      <trkpt lat="46.417454844340682" lon="8.809100612998009">
        <ele>1488.4132</ele>
        <time>2012-10-13T12:18:21Z</time>
      </trkpt>
      <trkpt lat="46.417491557076573" lon="8.809356680139899">
        <ele>1488.7373</ele>
        <time>2012-10-13T12:18:39Z</time>
      </trkpt>
      <trkpt lat="46.417306065559387" lon="8.80937235429883">
        <ele>1488.9259999999999</ele>
        <time>2012-10-13T12:18:59Z</time>
      </trkpt>
      <trkpt lat="46.417255522683263" lon="8.809626158326864">
        <ele>1484.8810000000001</ele>
        <time>2012-10-13T12:19:25Z</time>
      </trkpt>
      <trkpt lat="46.417314447462559" lon="8.809883398935199">
        <ele>1483.2688000000001</ele>
        <time>2012-10-13T12:19:43Z</time>
      </trkpt>
      <trkpt lat="46.417352249845862" lon="8.810148937627673">
        <ele>1479.7366</ele>
        <time>2012-10-13T12:20:02Z</time>
      </trkpt>
      <trkpt lat="46.417346717789769" lon="8.810416487976909">
        <ele>1476.7401</ele>
        <time>2012-10-13T12:20:21Z</time>
      </trkpt>
      <trkpt lat="46.417285026982427" lon="8.810663921758533">
        <ele>1475.5195000000001</ele>
        <time>2012-10-13T12:20:40Z</time>
      </trkpt>
      <trkpt lat="46.417199615389109" lon="8.810894759371877">
        <ele>1471.499</ele>
        <time>2012-10-13T12:21:01Z</time>
      </trkpt>
      <trkpt lat="46.417206237092614" lon="8.811168679967523">
        <ele>1468.5804000000001</ele>
        <time>2012-10-13T12:21:22Z</time>
      </trkpt>
      <trkpt lat="46.417197100818157" lon="8.811437319964171">
        <ele>1463.5262</ele>
        <time>2012-10-13T12:21:45Z</time>
      </trkpt>
      <trkpt lat="46.417149743065238" lon="8.811695482581854">
        <ele>1460.2660000000001</ele>
        <time>2012-10-13T12:22:02Z</time>
      </trkpt>
      <trkpt lat="46.417212523519993" lon="8.811946101486683">
        <ele>1454.6409000000001</ele>
        <time>2012-10-13T12:22:22Z</time>
      </trkpt>
      <trkpt lat="46.417076736688614" lon="8.812128156423569">
        <ele>1447.9629</ele>
        <time>2012-10-13T12:22:55Z</time>
      </trkpt>
      <trkpt lat="46.416910942643881" lon="8.81201189942658">
        <ele>1444.8987999999999</ele>
        <time>2012-10-13T12:23:21Z</time>
      </trkpt>
      <trkpt lat="46.416935417801142" lon="8.812270481139422">
        <ele>1435.1596999999999</ele>
        <time>2012-10-13T12:23:48Z</time>
      </trkpt>
      <trkpt lat="46.416931059211493" lon="8.812534008175135">
        <ele>1431.7080000000001</ele>
        <time>2012-10-13T12:24:10Z</time>
      </trkpt>
      <trkpt lat="46.416999623179436" lon="8.812779933214188">
        <ele>1425.7255</ele>
        <time>2012-10-13T12:24:36Z</time>
      </trkpt>
      <trkpt lat="46.417045807465911" lon="8.81303608417511">
        <ele>1420.1268</ele>
        <time>2012-10-13T12:25:02Z</time>
      </trkpt>
      <trkpt lat="46.417080760002136" lon="8.813294498249888">
        <ele>1413.4657999999999</ele>
        <time>2012-10-13T12:25:25Z</time>
      </trkpt>
      <trkpt lat="46.416970621794462" lon="8.81351787596941">
        <ele>1410.4751000000001</ele>
        <time>2012-10-13T12:25:43Z</time>
      </trkpt>
      <trkpt lat="46.416851850226521" lon="8.813723903149366">
        <ele>1410.519</ele>
        <time>2012-10-13T12:26:04Z</time>
      </trkpt>
      <trkpt lat="46.416742634028196" lon="8.813932277262211">
        <ele>1405.5471</ele>
        <time>2012-10-13T12:26:31Z</time>
      </trkpt>
      <trkpt lat="46.416785717010498" lon="8.814188009127975">
        <ele>1401.1554000000001</ele>
        <time>2012-10-13T12:26:52Z</time>
      </trkpt>
      <trkpt lat="46.416599052026868" lon="8.814215250313282">
        <ele>1396.3130000000001</ele>
        <time>2012-10-13T12:27:12Z</time>
      </trkpt>
      <trkpt lat="46.416434515267611" lon="8.814092120155692">
        <ele>1392.2954999999999</ele>
        <time>2012-10-13T12:27:31Z</time>
      </trkpt>
      <trkpt lat="46.416394785046577" lon="8.81434709765017">
        <ele>1386.8503000000001</ele>
        <time>2012-10-13T12:27:54Z</time>
      </trkpt>
      <trkpt lat="46.416313480585814" lon="8.814580198377371">
        <ele>1383.1309000000001</ele>
        <time>2012-10-13T12:28:19Z</time>
      </trkpt>
      <trkpt lat="46.416367124766111" lon="8.814831236377358">
        <ele>1377.6719000000001</ele>
        <time>2012-10-13T12:28:40Z</time>
      </trkpt>
      <trkpt lat="46.41618188470602" lon="8.814879767596722">
        <ele>1375.4706000000001</ele>
        <time>2012-10-13T12:29:06Z</time>
      </trkpt>
      <trkpt lat="46.416136706247926" lon="8.815137930214405">
        <ele>1369.5998999999999</ele>
        <time>2012-10-13T12:29:45Z</time>
      </trkpt>
      <trkpt lat="46.416119355708361" lon="8.815397601574659">
        <ele>1366.5210999999999</ele>
        <time>2012-10-13T12:30:03Z</time>
      </trkpt>
      <trkpt lat="46.416293950751424" lon="8.81546700373292">
        <ele>1357.2483</ele>
        <time>2012-10-13T12:30:20Z</time>
      </trkpt>
      <trkpt lat="46.416476592421532" lon="8.815394500270486">
        <ele>1350.5679</ele>
        <time>2012-10-13T12:30:34Z</time>
      </trkpt>
      <trkpt lat="46.416649091988802" lon="8.815477062016726">
        <ele>1345.1832999999999</ele>
        <time>2012-10-13T12:30:56Z</time>
      </trkpt>
      <trkpt lat="46.416552197188139" lon="8.815699685364962">
        <ele>1345.2988</ele>
        <time>2012-10-13T12:31:29Z</time>
      </trkpt>
      <trkpt lat="46.416542641818523" lon="8.815963715314865">
        <ele>1339.9998000000001</ele>
        <time>2012-10-13T12:31:59Z</time>
      </trkpt>
      <trkpt lat="46.416533254086971" lon="8.816223805770278">
        <ele>1336.6664000000001</ele>
        <time>2012-10-13T12:32:22Z</time>
      </trkpt>
      <trkpt lat="46.416587317362428" lon="8.816480794921517">
        <ele>1334.364</ele>
        <time>2012-10-13T12:32:42Z</time>
      </trkpt>
      <trkpt lat="46.416643727570772" lon="8.816741220653057">
        <ele>1333.269</ele>
        <time>2012-10-13T12:33:12Z</time>
      </trkpt>
      <trkpt lat="46.416561082005501" lon="8.816984128206968">
        <ele>1334.7819999999999</ele>
        <time>2012-10-13T12:33:38Z</time>
      </trkpt>
      <trkpt lat="46.416462259367108" lon="8.817215552553535">
        <ele>1336.0399</ele>
        <time>2012-10-13T12:34:01Z</time>
      </trkpt>
      <trkpt lat="46.416381541639566" lon="8.817454939708114">
        <ele>1325.2529999999999</ele>
        <time>2012-10-13T12:34:57Z</time>
      </trkpt>
      <trkpt lat="46.416465193033218" lon="8.817223682999611">
        <ele>1302.8499999999999</ele>
        <time>2012-10-13T12:36:29Z</time>
      </trkpt>
      <trkpt lat="46.416301410645247" lon="8.817335078492761">
        <ele>1294.2012</ele>
        <time>2012-10-13T12:37:10Z</time>
      </trkpt>
      <trkpt lat="46.416163109242916" lon="8.817167105153203">
        <ele>1281.6878999999999</ele>
        <time>2012-10-13T12:38:00Z</time>
      </trkpt>
      <trkpt lat="46.41604014672339" lon="8.817363493144512">
        <ele>1275.6316999999999</ele>
        <time>2012-10-13T12:38:17Z</time>
      </trkpt>
      <trkpt lat="46.415906120091677" lon="8.817552924156189">
        <ele>1272.7587000000001</ele>
        <time>2012-10-13T12:38:33Z</time>
      </trkpt>
      <trkpt lat="46.415851721540093" lon="8.817805135622621">
        <ele>1263.7655999999999</ele>
        <time>2012-10-13T12:38:54Z</time>
      </trkpt>
      <trkpt lat="46.415910059586167" lon="8.81805625744164">
        <ele>1254.4114999999999</ele>
        <time>2012-10-13T12:39:14Z</time>
      </trkpt>
      <trkpt lat="46.415971498936415" lon="8.818308720365167">
        <ele>1248.9163000000001</ele>
        <time>2012-10-13T12:39:32Z</time>
      </trkpt>
      <trkpt lat="46.416030423715711" lon="8.818555399775505">
        <ele>1240.9246000000001</ele>
        <time>2012-10-13T12:39:50Z</time>
      </trkpt>
      <trkpt lat="46.416167048737407" lon="8.818738628178835">
        <ele>1237.2754</ele>
        <time>2012-10-13T12:40:07Z</time>
      </trkpt>
      <trkpt lat="46.41630107536912" lon="8.818920934572816">
        <ele>1231.8677</ele>
        <time>2012-10-13T12:40:24Z</time>
      </trkpt>
      <trkpt lat="46.416122121736407" lon="8.818992096930742">
        <ele>1223.9327000000001</ele>
        <time>2012-10-13T12:41:11Z</time>
      </trkpt>
      <trkpt lat="46.415948532521725" lon="8.818915234878659">
        <ele>1219.4019000000001</ele>
        <time>2012-10-13T12:41:38Z</time>
      </trkpt>
      <trkpt lat="46.415772261098027" lon="8.818831499665976">
        <ele>1214.2906</ele>
        <time>2012-10-13T12:42:08Z</time>
      </trkpt>
      <trkpt lat="46.41590385697782" lon="8.819023193791509">
        <ele>1201.7722000000001</ele>
        <time>2012-10-13T12:42:51Z</time>
      </trkpt>
      <trkpt lat="46.415737979114056" lon="8.81891037337482">
        <ele>1195.1967</ele>
        <time>2012-10-13T12:43:18Z</time>
      </trkpt>
      <trkpt lat="46.415736638009548" lon="8.819182701408863">
        <ele>1184.5106000000001</ele>
        <time>2012-10-13T12:44:03Z</time>
      </trkpt>
      <trkpt lat="46.415889859199524" lon="8.819322092458606">
        <ele>1178.9038</ele>
        <time>2012-10-13T12:44:28Z</time>
      </trkpt>
      <trkpt lat="46.415946017950773" lon="8.819576818495989">
        <ele>1168.6936000000001</ele>
        <time>2012-10-13T12:45:02Z</time>
      </trkpt>
      <trkpt lat="46.416099909693003" lon="8.819729788228869">
        <ele>1163.5029999999999</ele>
        <time>2012-10-13T12:45:31Z</time>
      </trkpt>
      <trkpt lat="46.416273582726717" lon="8.81980849429965">
        <ele>1162.0834</ele>
        <time>2012-10-13T12:45:52Z</time>
      </trkpt>
      <trkpt lat="46.416180962696671" lon="8.820037320256233">
        <ele>1156.0859</ele>
        <time>2012-10-13T12:46:13Z</time>
      </trkpt>
      <trkpt lat="46.416054898872972" lon="8.819842608645558">
        <ele>1152.2043000000001</ele>
        <time>2012-10-13T12:46:53Z</time>
      </trkpt>
      <trkpt lat="46.415872341021895" lon="8.819837663322687">
        <ele>1128.3359</ele>
        <time>2012-10-13T12:48:40Z</time>
      </trkpt>
      <trkpt lat="46.415798747912049" lon="8.819584613665938">
        <ele>1124.0569</ele>
        <time>2012-10-13T12:49:04Z</time>
      </trkpt>
      <trkpt lat="46.415932606905699" lon="8.819762310013175">
        <ele>1120.9489000000001</ele>
        <time>2012-10-13T12:49:21Z</time>
      </trkpt>
      <trkpt lat="46.415752731263638" lon="8.819714449346066">
        <ele>1115.2153000000001</ele>
        <time>2012-10-13T12:49:43Z</time>
      </trkpt>
      <trkpt lat="46.415819618850946" lon="8.819959536194801">
        <ele>1100.9911999999999</ele>
        <time>2012-10-13T12:50:43Z</time>
      </trkpt>
      <trkpt lat="46.415979545563459" lon="8.820079732686281">
        <ele>1095.3505</ele>
        <time>2012-10-13T12:51:16Z</time>
      </trkpt>
      <trkpt lat="46.416009552776814" lon="8.820337560027838">
        <ele>1092.5762999999999</ele>
        <time>2012-10-13T12:51:34Z</time>
      </trkpt>
      <trkpt lat="46.41582565382123" lon="8.82031274959445">
        <ele>1077.5234</ele>
        <time>2012-10-13T12:53:01Z</time>
      </trkpt>
      <trkpt lat="46.415674863383174" lon="8.820155002176762">
        <ele>1076.1832999999999</ele>
        <time>2012-10-13T12:53:23Z</time>
      </trkpt>
      <trkpt lat="46.415492137894034" lon="8.820125414058566">
        <ele>1073.2945999999999</ele>
        <time>2012-10-13T12:53:44Z</time>
      </trkpt>
      <trkpt lat="46.4155906252563" lon="8.820348037406802">
        <ele>1065.9955</ele>
        <time>2012-10-13T12:54:14Z</time>
      </trkpt>
      <trkpt lat="46.415525246411562" lon="8.820600165054202">
        <ele>1058.1569999999999</ele>
        <time>2012-10-13T12:54:52Z</time>
      </trkpt>
      <trkpt lat="46.415344784036279" lon="8.820575689896941">
        <ele>1052.5808999999999</ele>
        <time>2012-10-13T12:56:00Z</time>
      </trkpt>
      <trkpt lat="46.415183516219258" lon="8.820450631901622">
        <ele>1050.2021</ele>
        <time>2012-10-13T12:56:37Z</time>
      </trkpt>
      <trkpt lat="46.41510103829205" lon="8.820217363536358">
        <ele>1047.5134</ele>
        <time>2012-10-13T12:57:07Z</time>
      </trkpt>
      <trkpt lat="46.414983188733459" lon="8.820015946403146">
        <ele>1044.7645</ele>
        <time>2012-10-13T12:57:35Z</time>
      </trkpt>
      <trkpt lat="46.414861818775535" lon="8.819808829575777">
        <ele>1041.1161999999999</ele>
        <time>2012-10-13T12:58:06Z</time>
      </trkpt>
      <trkpt lat="46.414740532636642" lon="8.819611351937056">
        <ele>1038.4485999999999</ele>
        <time>2012-10-13T12:58:35Z</time>
      </trkpt>
      <trkpt lat="46.414554789662361" lon="8.819588553160429">
        <ele>1033.4602</ele>
        <time>2012-10-13T12:59:13Z</time>
      </trkpt>
      <trkpt lat="46.414497960358858" lon="8.819335754960775">
        <ele>1031.6763000000001</ele>
        <time>2012-10-13T12:59:34Z</time>
      </trkpt>
      <trkpt lat="46.414316995069385" lon="8.81937556900084">
        <ele>1025.1111000000001</ele>
        <time>2012-10-13T13:00:24Z</time>
      </trkpt>
      <trkpt lat="46.414136029779911" lon="8.819329971447587">
        <ele>1019.27423</ele>
        <time>2012-10-13T13:01:07Z</time>
      </trkpt>
      <trkpt lat="46.414040140807629" lon="8.81955343298614">
        <ele>1008.9223</ele>
        <time>2012-10-13T13:02:03Z</time>
      </trkpt>
      <trkpt lat="46.413888763636351" lon="8.819407168775797">
        <ele>1002.69934</ele>
        <time>2012-10-13T13:02:49Z</time>
      </trkpt>
      <trkpt lat="46.413771081715822" lon="8.819609005004168">
        <ele>993.91565000000003</ele>
        <time>2012-10-13T13:03:23Z</time>
      </trkpt>
      <trkpt lat="46.413611993193626" lon="8.819733560085297">
        <ele>976.19854999999995</ele>
        <time>2012-10-13T13:04:22Z</time>
      </trkpt>
      <trkpt lat="46.413716180250049" lon="8.819946208968759">
        <ele>966.84050000000002</ele>
        <time>2012-10-13T13:04:55Z</time>
      </trkpt>
      <trkpt lat="46.413542171940207" lon="8.819847721606493">
        <ele>965.62710000000004</ele>
        <time>2012-10-13T13:05:13Z</time>
      </trkpt>
      <trkpt lat="46.413495820015669" lon="8.819581847637892">
        <ele>963.74519999999995</ele>
        <time>2012-10-13T13:05:33Z</time>
      </trkpt>
      <trkpt lat="46.413500849157572" lon="8.819307927042246">
        <ele>961.60260000000005</ele>
        <time>2012-10-13T13:05:49Z</time>
      </trkpt>
      <trkpt lat="46.413627583533525" lon="8.819107515737414">
        <ele>961.08180000000004</ele>
        <time>2012-10-13T13:06:05Z</time>
      </trkpt>
      <trkpt lat="46.413762532174587" lon="8.818931663408876">
        <ele>960.50689999999997</ele>
        <time>2012-10-13T13:06:13Z</time>
      </trkpt>
      <trkpt lat="46.413641832768917" lon="8.818722702562809">
        <ele>959.47864000000004</ele>
        <time>2012-10-13T13:06:27Z</time>
      </trkpt>
      <trkpt lat="46.413474949076772" lon="8.818613737821579">
        <ele>956.18939999999998</ele>
        <time>2012-10-13T13:08:09Z</time>
      </trkpt>
    </trkseg>
  </trk>

</gpx>